sensor_id;sensor_type;location;lat;lon;timestamp;pressure;altitude;pressure_sealevel;temperature;humidity
76201;BME280;64981;52.930;9.266;2023-02-17T00:01:56;101424.81;;;8.43;85.40
76201;BME280;64981;52.930;9.266;2023-02-17T00:04:22;101421.00;;;8.57;84.87
76201;BME280;64981;52.930;9.266;2023-02-17T00:06:48;101428.53;;;8.41;85.50
76201;BME280;64981;52.930;9.266;2023-02-17T00:09:14;101418.28;;;8.68;84.42
76201;BME280;64981;52.930;9.266;2023-02-17T00:11:39;101409.59;;;8.67;84.65
76201;BME280;64981;52.930;9.266;2023-02-17T00:14:05;101404.88;;;8.71;84.48
76201;BME280;64981;52.930;9.266;2023-02-17T00:16:32;101403.13;;;8.60;85.11
76201;BME280;64981;52.930;9.266;2023-02-17T00:19:00;101404.16;;;8.69;84.67
76201;BME280;64981;52.930;9.266;2023-02-17T00:21:28;101402.63;;;8.66;85.09
76201;BME280;64981;52.930;9.266;2023-02-17T00:23:56;101392.13;;;8.76;84.37
76201;BME280;64981;52.930;9.266;2023-02-17T00:26:22;101390.63;;;8.74;85.10
76201;BME280;64981;52.930;9.266;2023-02-17T00:28:49;101388.66;;;8.76;84.72
76201;BME280;64981;52.930;9.266;2023-02-17T00:31:18;101392.69;;;8.70;84.83
76201;BME280;64981;52.930;9.266;2023-02-17T00:33:45;101390.78;;;8.91;84.02
76201;BME280;64981;52.930;9.266;2023-02-17T00:36:14;101391.03;;;8.79;84.59
76201;BME280;64981;52.930;9.266;2023-02-17T00:38:42;101397.69;;;8.83;84.44
76201;BME280;64981;52.930;9.266;2023-02-17T00:41:08;101395.63;;;8.86;84.18
76201;BME280;64981;52.930;9.266;2023-02-17T00:43:33;101396.75;;;8.93;84.12
76201;BME280;64981;52.930;9.266;2023-02-17T00:45:59;101389.56;;;9.05;83.62
76201;BME280;64981;52.930;9.266;2023-02-17T00:48:27;101390.72;;;8.72;85.15
76201;BME280;64981;52.930;9.266;2023-02-17T00:50:53;101390.63;;;8.83;84.84
76201;BME280;64981;52.930;9.266;2023-02-17T00:53:18;101367.91;;;8.92;84.57
76201;BME280;64981;52.930;9.266;2023-02-17T00:55:44;101368.19;;;8.89;84.41
76201;BME280;64981;52.930;9.266;2023-02-17T00:58:09;101372.75;;;8.77;85.17
76201;BME280;64981;52.930;9.266;2023-02-17T01:00:35;101377.34;;;8.94;84.31
76201;BME280;64981;52.930;9.266;2023-02-17T01:03:01;101367.38;;;8.98;84.33
76201;BME280;64981;52.930;9.266;2023-02-17T01:05:26;101359.19;;;9.01;84.28
76201;BME280;64981;52.930;9.266;2023-02-17T01:07:52;101360.69;;;8.94;84.21
76201;BME280;64981;52.930;9.266;2023-02-17T01:10:18;101355.44;;;9.03;84.18
76201;BME280;64981;52.930;9.266;2023-02-17T01:12:43;101348.53;;;9.02;84.16
76201;BME280;64981;52.930;9.266;2023-02-17T01:15:09;101348.38;;;9.04;84.19
76201;BME280;64981;52.930;9.266;2023-02-17T01:17:35;101354.19;;;9.07;84.05
76201;BME280;64981;52.930;9.266;2023-02-17T01:20:01;101355.88;;;9.08;84.12
76201;BME280;64981;52.930;9.266;2023-02-17T01:22:27;101356.41;;;9.12;84.14
76201;BME280;64981;52.930;9.266;2023-02-17T01:24:52;101345.19;;;9.19;83.91
76201;BME280;64981;52.930;9.266;2023-02-17T01:27:18;101357.97;;;9.24;83.56
76201;BME280;64981;52.930;9.266;2023-02-17T01:29:44;101355.84;;;9.27;83.46
76201;BME280;64981;52.930;9.266;2023-02-17T01:32:10;101351.31;;;9.20;84.03
76201;BME280;64981;52.930;9.266;2023-02-17T01:34:36;101357.81;;;9.25;83.63
76201;BME280;64981;52.930;9.266;2023-02-17T01:37:02;101356.69;;;9.47;82.56
76201;BME280;64981;52.930;9.266;2023-02-17T01:39:28;101349.88;;;8.97;84.62
76201;BME280;64981;52.930;9.266;2023-02-17T01:41:55;101339.06;;;9.00;84.85
76201;BME280;64981;52.930;9.266;2023-02-17T01:44:23;101331.34;;;9.17;84.18
76201;BME280;64981;52.930;9.266;2023-02-17T01:46:51;101319.09;;;9.07;84.37
76201;BME280;64981;52.930;9.266;2023-02-17T01:49:32;101328.97;;;9.14;84.50
76201;BME280;64981;52.930;9.266;2023-02-17T01:52:10;101326.47;;;9.13;84.66
76201;BME280;64981;52.930;9.266;2023-02-17T01:54:44;101322.59;;;9.17;84.17
76201;BME280;64981;52.930;9.266;2023-02-17T01:57:15;101314.13;;;9.13;84.51
76201;BME280;64981;52.930;9.266;2023-02-17T01:59:43;101319.38;;;9.13;84.51
76201;BME280;64981;52.930;9.266;2023-02-17T02:02:10;101310.94;;;9.19;84.41
76201;BME280;64981;52.930;9.266;2023-02-17T02:04:39;101305.25;;;9.24;84.00
76201;BME280;64981;52.930;9.266;2023-02-17T02:07:15;101300.09;;;9.13;84.62
76201;BME280;64981;52.930;9.266;2023-02-17T02:09:49;101304.81;;;9.09;84.62
76201;BME280;64981;52.930;9.266;2023-02-17T02:12:26;101308.28;;;9.19;84.45
76201;BME280;64981;52.930;9.266;2023-02-17T02:14:57;101304.41;;;9.23;84.28
76201;BME280;64981;52.930;9.266;2023-02-17T02:17:47;101312.44;;;9.32;83.92
76201;BME280;64981;52.930;9.266;2023-02-17T02:20:42;101304.25;;;9.25;83.96
76201;BME280;64981;52.930;9.266;2023-02-17T02:29:38;101290.66;;;9.49;82.98
76201;BME280;64981;52.930;9.266;2023-02-17T02:35:35;101279.16;;;9.31;83.49
76201;BME280;64981;52.930;9.266;2023-02-17T02:38:19;101276.09;;;9.25;83.80
76201;BME280;64981;52.930;9.266;2023-02-17T02:40:52;101266.97;;;9.20;83.72
76201;BME280;64981;52.930;9.266;2023-02-17T02:43:19;101270.72;;;9.27;83.64
76201;BME280;64981;52.930;9.266;2023-02-17T02:45:45;101266.28;;;9.18;84.22
76201;BME280;64981;52.930;9.266;2023-02-17T02:48:11;101261.00;;;9.18;84.25
76201;BME280;64981;52.930;9.266;2023-02-17T02:50:58;101256.25;;;9.21;84.12
76201;BME280;64981;52.930;9.266;2023-02-17T02:53:49;101257.25;;;9.20;84.66
76201;BME280;64981;52.930;9.266;2023-02-17T02:56:48;101246.69;;;9.40;83.61
76201;BME280;64981;52.930;9.266;2023-02-17T02:59:30;101243.75;;;9.43;83.14
76201;BME280;64981;52.930;9.266;2023-02-17T03:05:25;101245.13;;;9.47;82.79
76201;BME280;64981;52.930;9.266;2023-02-17T03:08:00;101228.91;;;9.42;83.27
76201;BME280;64981;52.930;9.266;2023-02-17T03:10:28;101226.28;;;9.32;83.59
76201;BME280;64981;52.930;9.266;2023-02-17T03:13:02;101220.97;;;9.51;82.70
76201;BME280;64981;52.930;9.266;2023-02-17T03:15:31;101235.28;;;9.49;82.86
76201;BME280;64981;52.930;9.266;2023-02-17T03:18:00;101228.31;;;9.57;82.73
76201;BME280;64981;52.930;9.266;2023-02-17T03:20:30;101208.97;;;9.66;82.00
76201;BME280;64981;52.930;9.266;2023-02-17T03:22:58;101220.97;;;9.51;82.70
76201;BME280;64981;52.930;9.266;2023-02-17T03:25:23;101201.91;;;9.20;83.88
76201;BME280;64981;52.930;9.266;2023-02-17T03:27:49;101211.78;;;9.65;82.38
76201;BME280;64981;52.930;9.266;2023-02-17T03:30:15;101212.91;;;9.53;82.83
76201;BME280;64981;52.930;9.266;2023-02-17T03:32:41;101201.16;;;9.38;83.47
76201;BME280;64981;52.930;9.266;2023-02-17T03:35:07;101195.56;;;9.50;83.03
76201;BME280;64981;52.930;9.266;2023-02-17T03:37:33;101205.78;;;9.26;83.87
76201;BME280;64981;52.930;9.266;2023-02-17T03:39:59;101195.41;;;9.15;84.39
76201;BME280;64981;52.930;9.266;2023-02-17T03:42:25;101191.75;;;9.25;84.16
76201;BME280;64981;52.930;9.266;2023-02-17T03:44:50;101196.06;;;9.27;84.01
76201;BME280;64981;52.930;9.266;2023-02-17T03:47:16;101194.56;;;9.24;84.48
76201;BME280;64981;52.930;9.266;2023-02-17T03:49:41;101197.44;;;9.31;84.25
76201;BME280;64981;52.930;9.266;2023-02-17T03:52:07;101196.34;;;9.23;84.48
76201;BME280;64981;52.930;9.266;2023-02-17T03:54:34;101192.59;;;9.16;84.69
76201;BME280;64981;52.930;9.266;2023-02-17T03:56:59;101188.16;;;9.27;83.95
76201;BME280;64981;52.930;9.266;2023-02-17T03:59:26;101187.28;;;9.36;83.61
76201;BME280;64981;52.930;9.266;2023-02-17T04:01:51;101193.13;;;9.39;83.66
76201;BME280;64981;52.930;9.266;2023-02-17T04:04:17;101188.38;;;9.43;83.57
76201;BME280;64981;52.930;9.266;2023-02-17T04:06:43;101184.50;;;9.37;83.79
76201;BME280;64981;52.930;9.266;2023-02-17T04:09:08;101177.31;;;9.30;84.18
76201;BME280;64981;52.930;9.266;2023-02-17T04:11:34;101180.56;;;9.51;83.43
76201;BME280;64981;52.930;9.266;2023-02-17T04:14:00;101173.34;;;9.53;83.40
76201;BME280;64981;52.930;9.266;2023-02-17T04:16:26;101172.38;;;9.54;83.26
76201;BME280;64981;52.930;9.266;2023-02-17T04:18:51;101171.44;;;9.45;83.88
76201;BME280;64981;52.930;9.266;2023-02-17T04:21:17;101177.66;;;9.54;83.62
76201;BME280;64981;52.930;9.266;2023-02-17T04:23:43;101170.56;;;9.54;83.60
76201;BME280;64981;52.930;9.266;2023-02-17T04:26:09;101187.19;;;9.64;83.16
76201;BME280;64981;52.930;9.266;2023-02-17T04:28:37;101169.38;;;9.39;84.05
76201;BME280;64981;52.930;9.266;2023-02-17T04:31:03;101172.41;;;9.44;83.72
76201;BME280;64981;52.930;9.266;2023-02-17T04:33:29;101167.00;;;9.46;83.77
76201;BME280;64981;52.930;9.266;2023-02-17T04:35:55;101167.59;;;9.40;84.01
76201;BME280;64981;52.930;9.266;2023-02-17T04:38:26;101173.75;;;9.58;83.04
76201;BME280;64981;52.930;9.266;2023-02-17T04:40:53;101166.75;;;9.39;83.96
76201;BME280;64981;52.930;9.266;2023-02-17T04:43:20;101171.00;;;9.50;83.59
76201;BME280;64981;52.930;9.266;2023-02-17T04:45:45;101165.31;;;9.54;82.97
76201;BME280;64981;52.930;9.266;2023-02-17T04:48:11;101155.47;;;9.47;83.62
76201;BME280;64981;52.930;9.266;2023-02-17T04:50:36;101154.72;;;9.64;82.79
76201;BME280;64981;52.930;9.266;2023-02-17T04:53:02;101152.91;;;9.64;83.03
76201;BME280;64981;52.930;9.266;2023-02-17T04:55:27;101148.56;;;9.46;83.78
76201;BME280;64981;52.930;9.266;2023-02-17T04:57:54;101145.13;;;9.36;84.05
76201;BME280;64981;52.930;9.266;2023-02-17T05:00:20;101133.06;;;9.60;83.22
76201;BME280;64981;52.930;9.266;2023-02-17T05:02:45;101133.66;;;9.54;83.36
76201;BME280;64981;52.930;9.266;2023-02-17T05:05:11;101124.88;;;9.63;83.04
76201;BME280;64981;52.930;9.266;2023-02-17T05:07:41;101129.66;;;9.77;82.67
76201;BME280;64981;52.930;9.266;2023-02-17T05:10:07;101121.75;;;9.77;82.17
76201;BME280;64981;52.930;9.266;2023-02-17T05:12:33;101123.94;;;9.82;82.25
76201;BME280;64981;52.930;9.266;2023-02-17T05:14:59;101118.34;;;9.67;82.53
76201;BME280;64981;52.930;9.266;2023-02-17T05:17:25;101124.56;;;9.66;82.79
76201;BME280;64981;52.930;9.266;2023-02-17T05:19:51;101115.06;;;9.83;81.77
76201;BME280;64981;52.930;9.266;2023-02-17T05:22:19;101110.75;;;9.82;81.75
76201;BME280;64981;52.930;9.266;2023-02-17T05:24:45;101113.13;;;9.75;81.81
76201;BME280;64981;52.930;9.266;2023-02-17T05:27:10;101114.59;;;9.88;81.32
76201;BME280;64981;52.930;9.266;2023-02-17T05:29:36;101119.50;;;10.00;81.25
76201;BME280;64981;52.930;9.266;2023-02-17T05:32:01;101106.84;;;10.04;80.66
76201;BME280;64981;52.930;9.266;2023-02-17T05:34:27;101104.19;;;9.86;81.56
76201;BME280;64981;52.930;9.266;2023-02-17T05:36:52;101111.81;;;9.89;81.29
76201;BME280;64981;52.930;9.266;2023-02-17T05:39:18;101108.88;;;9.92;81.36
76201;BME280;64981;52.930;9.266;2023-02-17T05:41:44;101104.56;;;9.91;80.96
76201;BME280;64981;52.930;9.266;2023-02-17T05:44:09;101107.44;;;9.80;81.67
76201;BME280;64981;52.930;9.266;2023-02-17T05:46:35;101111.56;;;9.65;82.23
76201;BME280;64981;52.930;9.266;2023-02-17T05:49:00;101110.56;;;9.66;81.99
76201;BME280;64981;52.930;9.266;2023-02-17T05:51:26;101112.72;;;9.80;81.42
76201;BME280;64981;52.930;9.266;2023-02-17T05:53:52;101113.59;;;9.71;81.87
76201;BME280;64981;52.930;9.266;2023-02-17T05:56:17;101101.75;;;9.75;81.44
76201;BME280;64981;52.930;9.266;2023-02-17T05:58:43;101104.44;;;9.93;80.87
76201;BME280;64981;52.930;9.266;2023-02-17T06:01:10;101087.47;;;9.95;80.53
76201;BME280;64981;52.930;9.266;2023-02-17T06:03:36;101095.22;;;9.79;81.19
76201;BME280;64981;52.930;9.266;2023-02-17T06:06:03;101089.25;;;9.50;82.21
76201;BME280;64981;52.930;9.266;2023-02-17T06:11:03;101068.53;;;9.64;81.53
76201;BME280;64981;52.930;9.266;2023-02-17T06:13:29;101062.88;;;9.77;81.01
76201;BME280;64981;52.930;9.266;2023-02-17T06:15:55;101072.56;;;9.59;81.56
76201;BME280;64981;52.930;9.266;2023-02-17T06:18:20;101038.91;;;9.43;81.58
76201;BME280;64981;52.930;9.266;2023-02-17T06:20:46;101051.84;;;9.46;82.00
76201;BME280;64981;52.930;9.266;2023-02-17T06:23:11;101066.78;;;9.73;81.07
76201;BME280;64981;52.930;9.266;2023-02-17T06:25:37;101069.28;;;9.47;81.68
76201;BME280;64981;52.930;9.266;2023-02-17T06:28:03;101069.25;;;9.74;80.71
76201;BME280;64981;52.930;9.266;2023-02-17T06:30:29;101068.47;;;9.74;80.63
76201;BME280;64981;52.930;9.266;2023-02-17T06:32:55;101069.06;;;9.68;80.86
76201;BME280;64981;52.930;9.266;2023-02-17T06:35:22;101064.50;;;9.60;81.20
76201;BME280;64981;52.930;9.266;2023-02-17T06:37:48;101065.53;;;9.77;80.15
76201;BME280;64981;52.930;9.266;2023-02-17T06:40:14;101060.69;;;9.72;80.37
76201;BME280;64981;52.930;9.266;2023-02-17T06:42:40;101058.28;;;9.79;79.94
76201;BME280;64981;52.930;9.266;2023-02-17T06:45:06;101045.03;;;9.89;79.33
76201;BME280;64981;52.930;9.266;2023-02-17T06:47:33;101045.31;;;9.86;79.23
76201;BME280;64981;52.930;9.266;2023-02-17T06:49:59;101032.06;;;9.77;79.56
76201;BME280;64981;52.930;9.266;2023-02-17T06:52:25;101026.31;;;9.64;80.38
76201;BME280;64981;52.930;9.266;2023-02-17T06:54:50;101017.66;;;9.90;79.49
76201;BME280;64981;52.930;9.266;2023-02-17T06:57:17;101027.97;;;10.01;79.15
76201;BME280;64981;52.930;9.266;2023-02-17T06:59:43;101022.09;;;9.89;78.92
76201;BME280;64981;52.930;9.266;2023-02-17T07:02:10;101010.72;;;9.89;78.80
76201;BME280;64981;52.930;9.266;2023-02-17T07:04:38;101019.84;;;9.94;78.63
76201;BME280;64981;52.930;9.266;2023-02-17T07:07:04;101018.25;;;10.01;78.01
76201;BME280;64981;52.930;9.266;2023-02-17T07:09:30;101021.34;;;9.97;78.63
76201;BME280;64981;52.930;9.266;2023-02-17T07:11:55;101021.63;;;9.94;78.70
76201;BME280;64981;52.930;9.266;2023-02-17T07:14:23;101015.47;;;9.85;78.46
76201;BME280;64981;52.930;9.266;2023-02-17T07:16:48;101014.09;;;9.81;78.66
76201;BME280;64981;52.930;9.266;2023-02-17T07:19:14;101022.41;;;9.86;78.66
76201;BME280;64981;52.930;9.266;2023-02-17T07:21:41;101018.03;;;9.95;78.21
76201;BME280;64981;52.930;9.266;2023-02-17T07:24:07;101027.84;;;10.02;77.77
76201;BME280;64981;52.930;9.266;2023-02-17T07:26:36;101025.50;;;9.99;77.91
76201;BME280;64981;52.930;9.266;2023-02-17T07:29:04;101022.09;;;10.07;77.48
76201;BME280;64981;52.930;9.266;2023-02-17T07:31:30;101034.25;;;10.17;77.16
76201;BME280;64981;52.930;9.266;2023-02-17T07:33:56;101030.53;;;10.10;77.20
76201;BME280;64981;52.930;9.266;2023-02-17T07:36:22;101020.28;;;10.25;76.88
76201;BME280;64981;52.930;9.266;2023-02-17T07:38:48;101013.72;;;9.94;77.74
76201;BME280;64981;52.930;9.266;2023-02-17T07:41:17;101005.91;;;10.02;77.70
76201;BME280;64981;52.930;9.266;2023-02-17T07:43:44;101015.31;;;10.04;78.00
76201;BME280;64981;52.930;9.266;2023-02-17T07:46:11;101026.78;;;9.95;78.45
76201;BME280;64981;52.930;9.266;2023-02-17T07:48:37;101030.22;;;9.78;78.69
76201;BME280;64981;52.930;9.266;2023-02-17T07:51:04;101020.84;;;9.93;78.44
76201;BME280;64981;52.930;9.266;2023-02-17T07:53:31;101011.88;;;10.21;77.69
76201;BME280;64981;52.930;9.266;2023-02-17T07:55:56;101025.44;;;10.26;77.38
76201;BME280;64981;52.930;9.266;2023-02-17T07:58:22;101011.19;;;10.02;78.26
76201;BME280;64981;52.930;9.266;2023-02-17T08:00:48;101012.00;;;9.85;79.18
76201;BME280;64981;52.930;9.266;2023-02-17T08:03:13;100999.34;;;9.88;78.78
76201;BME280;64981;52.930;9.266;2023-02-17T08:05:40;101008.44;;;9.94;78.52
76201;BME280;64981;52.930;9.266;2023-02-17T08:08:07;101004.47;;;9.90;79.12
76201;BME280;64981;52.930;9.266;2023-02-17T08:10:42;101012.63;;;9.96;79.09
76201;BME280;64981;52.930;9.266;2023-02-17T08:13:24;101004.31;;;9.91;79.48
76201;BME280;64981;52.930;9.266;2023-02-17T08:15:50;100986.44;;;10.03;78.95
76201;BME280;64981;52.930;9.266;2023-02-17T08:18:15;100998.81;;;10.02;79.23
76201;BME280;64981;52.930;9.266;2023-02-17T08:20:41;100995.03;;;10.05;79.13
76201;BME280;64981;52.930;9.266;2023-02-17T08:23:07;100986.13;;;9.88;80.24
76201;BME280;64981;52.930;9.266;2023-02-17T08:25:34;100975.22;;;9.83;80.11
76201;BME280;64981;52.930;9.266;2023-02-17T08:28:01;100979.88;;;10.24;78.81
76201;BME280;64981;52.930;9.266;2023-02-17T08:30:27;100973.25;;;10.20;79.20
76201;BME280;64981;52.930;9.266;2023-02-17T08:32:53;100972.78;;;10.25;78.66
76201;BME280;64981;52.930;9.266;2023-02-17T08:35:19;100962.41;;;9.88;80.34
76201;BME280;64981;52.930;9.266;2023-02-17T08:37:48;100966.75;;;9.97;79.79
76201;BME280;64981;52.930;9.266;2023-02-17T08:40:14;100961.69;;;10.04;80.00
76201;BME280;64981;52.930;9.266;2023-02-17T08:42:40;100958.75;;;10.07;79.59
76201;BME280;64981;52.930;9.266;2023-02-17T08:45:06;100962.53;;;10.04;79.98
76201;BME280;64981;52.930;9.266;2023-02-17T08:47:31;100968.19;;;9.92;80.83
76201;BME280;64981;52.930;9.266;2023-02-17T08:49:58;100955.19;;;9.90;80.87
76201;BME280;64981;52.930;9.266;2023-02-17T08:52:24;100965.44;;;9.93;80.90
76201;BME280;64981;52.930;9.266;2023-02-17T08:54:49;100961.88;;;9.85;81.38
76201;BME280;64981;52.930;9.266;2023-02-17T08:57:17;100948.38;;;10.05;80.45
76201;BME280;64981;52.930;9.266;2023-02-17T08:59:43;100937.28;;;10.02;80.85
76201;BME280;64981;52.930;9.266;2023-02-17T09:02:13;100937.19;;;10.11;80.59
76201;BME280;64981;52.930;9.266;2023-02-17T09:04:39;100958.94;;;9.88;81.54
76201;BME280;64981;52.930;9.266;2023-02-17T09:07:09;100955.84;;;9.92;81.27
76201;BME280;64981;52.930;9.266;2023-02-17T09:09:36;100950.00;;;10.06;81.14
76201;BME280;64981;52.930;9.266;2023-02-17T09:12:02;100937.22;;;9.94;81.58
76201;BME280;64981;52.930;9.266;2023-02-17T09:14:28;100940.50;;;10.13;80.66
76201;BME280;64981;52.930;9.266;2023-02-17T09:16:54;100947.16;;;10.00;81.29
76201;BME280;64981;52.930;9.266;2023-02-17T09:19:20;100941.44;;;10.04;81.44
76201;BME280;64981;52.930;9.266;2023-02-17T09:21:46;100933.75;;;9.75;82.40
76201;BME280;64981;52.930;9.266;2023-02-17T09:24:13;100951.63;;;9.99;81.54
76201;BME280;64981;52.930;9.266;2023-02-17T09:26:39;100933.56;;;10.12;81.13
76201;BME280;64981;52.930;9.266;2023-02-17T09:29:06;100940.75;;;10.02;81.63
76201;BME280;64981;52.930;9.266;2023-02-17T09:31:33;100949.66;;;10.01;82.04
76201;BME280;64981;52.930;9.266;2023-02-17T09:34:00;100955.66;;;10.11;81.31
76201;BME280;64981;52.930;9.266;2023-02-17T09:36:28;100947.25;;;9.90;82.40
76201;BME280;64981;52.930;9.266;2023-02-17T09:38:56;100944.72;;;10.06;81.79
76201;BME280;64981;52.930;9.266;2023-02-17T09:41:42;100946.84;;;10.03;82.11
76201;BME280;64981;52.930;9.266;2023-02-17T09:44:22;100932.06;;;10.10;82.07
76201;BME280;64981;52.930;9.266;2023-02-17T09:47:12;100929.94;;;10.13;81.82
76201;BME280;64981;52.930;9.266;2023-02-17T09:49:53;100921.59;;;10.00;82.38
76201;BME280;64981;52.930;9.266;2023-02-17T09:52:46;100925.69;;;9.95;82.29
76201;BME280;64981;52.930;9.266;2023-02-17T09:55:27;100927.34;;;9.96;82.62
76201;BME280;64981;52.930;9.266;2023-02-17T09:58:00;100922.28;;;10.02;81.96
76201;BME280;64981;52.930;9.266;2023-02-17T10:00:42;100937.97;;;10.21;81.59
76201;BME280;64981;52.930;9.266;2023-02-17T10:06:21;100919.34;;;10.31;81.64
76201;BME280;64981;52.930;9.266;2023-02-17T10:09:10;100924.66;;;10.13;81.87
76201;BME280;64981;52.930;9.266;2023-02-17T10:11:44;100926.56;;;10.03;82.22
76201;BME280;64981;52.930;9.266;2023-02-17T10:14:28;100913.22;;;10.05;82.43
76201;BME280;64981;52.930;9.266;2023-02-17T10:17:21;100910.94;;;10.27;81.49
76201;BME280;64981;52.930;9.266;2023-02-17T10:19:56;100892.50;;;10.36;81.25
76201;BME280;64981;52.930;9.266;2023-02-17T10:22:24;100889.88;;;10.44;80.69
76201;BME280;64981;52.930;9.266;2023-02-17T10:24:51;100886.69;;;10.32;80.50
76201;BME280;64981;52.930;9.266;2023-02-17T10:27:27;100875.50;;;10.38;80.87
76201;BME280;64981;52.930;9.266;2023-02-17T10:30:11;100874.22;;;10.42;80.23
76201;BME280;64981;52.930;9.266;2023-02-17T10:32:57;100878.41;;;10.53;79.61
76201;BME280;64981;52.930;9.266;2023-02-17T10:35:53;100881.50;;;10.48;80.10
76201;BME280;64981;52.930;9.266;2023-02-17T10:38:37;100888.59;;;10.48;79.69
76201;BME280;64981;52.930;9.266;2023-02-17T10:41:12;100901.16;;;10.54;79.51
76201;BME280;64981;52.930;9.266;2023-02-17T10:43:42;100907.19;;;10.72;79.14
76201;BME280;64981;52.930;9.266;2023-02-17T10:46:14;100892.72;;;10.84;78.23
76201;BME280;64981;52.930;9.266;2023-02-17T10:48:48;100889.78;;;11.03;77.53
76201;BME280;64981;52.930;9.266;2023-02-17T10:51:19;100883.78;;;10.77;78.27
76201;BME280;64981;52.930;9.266;2023-02-17T10:53:51;100886.28;;;10.87;78.29
76201;BME280;64981;52.930;9.266;2023-02-17T10:56:27;100886.75;;;10.82;78.18
76201;BME280;64981;52.930;9.266;2023-02-17T10:59:20;100897.22;;;11.00;77.44
76201;BME280;64981;52.930;9.266;2023-02-17T11:01:48;100880.69;;;10.90;77.81
76201;BME280;64981;52.930;9.266;2023-02-17T11:04:13;100911.25;;;10.92;77.86
76201;BME280;64981;52.930;9.266;2023-02-17T11:06:43;100901.00;;;10.89;77.65
76201;BME280;64981;52.930;9.266;2023-02-17T11:09:27;100896.72;;;11.04;77.31
76201;BME280;64981;52.930;9.266;2023-02-17T11:12:02;100898.13;;;11.24;76.63
76201;BME280;64981;52.930;9.266;2023-02-17T11:14:31;100905.03;;;11.17;76.58
76201;BME280;64981;52.930;9.266;2023-02-17T11:17:02;100889.84;;;11.35;76.01
76201;BME280;64981;52.930;9.266;2023-02-17T11:19:31;100885.69;;;11.25;76.35
76201;BME280;64981;52.930;9.266;2023-02-17T11:22:02;100889.19;;;11.25;76.10
76201;BME280;64981;52.930;9.266;2023-02-17T11:24:31;100873.34;;;11.33;75.99
76201;BME280;64981;52.930;9.266;2023-02-17T11:27:01;100873.97;;;11.11;76.64
76201;BME280;64981;52.930;9.266;2023-02-17T11:29:28;100881.75;;;11.29;76.00
76201;BME280;64981;52.930;9.266;2023-02-17T11:32:02;100866.38;;;11.24;75.82
76201;BME280;64981;52.930;9.266;2023-02-17T11:34:33;100873.31;;;11.25;76.19
76201;BME280;64981;52.930;9.266;2023-02-17T11:37:18;100864.53;;;11.25;76.49
76201;BME280;64981;52.930;9.266;2023-02-17T11:39:48;100883.75;;;11.35;75.64
76201;BME280;64981;52.930;9.266;2023-02-17T11:42:29;100891.34;;;11.30;75.77
76201;BME280;64981;52.930;9.266;2023-02-17T11:44:58;100876.47;;;11.53;75.25
76201;BME280;64981;52.930;9.266;2023-02-17T11:47:37;100874.81;;;11.44;75.79
76201;BME280;64981;52.930;9.266;2023-02-17T11:56:17;100868.41;;;11.47;75.24
76201;BME280;64981;52.930;9.266;2023-02-17T11:59:01;100867.88;;;11.51;75.41
76201;BME280;64981;52.930;9.266;2023-02-17T12:23:05;100865.75;;;11.47;76.46
76201;BME280;64981;52.930;9.266;2023-02-17T12:25:46;100863.06;;;11.22;77.43
76201;BME280;64981;52.930;9.266;2023-02-17T12:28:54;100869.84;;;11.25;77.39
76201;BME280;64981;52.930;9.266;2023-02-17T12:34:49;100863.56;;;11.26;78.44
76201;BME280;64981;52.930;9.266;2023-02-17T12:37:21;100854.16;;;11.48;78.25
76201;BME280;64981;52.930;9.266;2023-02-17T12:40:02;100855.13;;;11.22;79.48
76201;BME280;64981;52.930;9.266;2023-02-17T12:42:36;100859.75;;;11.12;79.69
76201;BME280;64981;52.930;9.266;2023-02-17T12:47:55;100874.00;;;11.27;79.68
76201;BME280;64981;52.930;9.266;2023-02-17T12:53:22;100875.44;;;11.14;80.43
76201;BME280;64981;52.930;9.266;2023-02-17T12:55:56;100878.78;;;11.24;80.12
76201;BME280;64981;52.930;9.266;2023-02-17T12:58:26;100888.19;;;11.18;80.50
76201;BME280;64981;52.930;9.266;2023-02-17T13:01:04;100895.28;;;11.18;81.24
76201;BME280;64981;52.930;9.266;2023-02-17T13:03:35;100895.63;;;11.15;81.29
76201;BME280;64981;52.930;9.266;2023-02-17T13:09:25;100886.19;;;11.12;82.38
76201;BME280;64981;52.930;9.266;2023-02-17T13:11:53;100895.81;;;11.21;81.70
76201;BME280;64981;52.930;9.266;2023-02-17T13:14:41;100889.16;;;11.17;82.13
76201;BME280;64981;52.930;9.266;2023-02-17T13:17:25;100912.44;;;11.06;82.55
76201;BME280;64981;52.930;9.266;2023-02-17T13:22:49;100904.78;;;10.95;83.04
76201;BME280;64981;52.930;9.266;2023-02-17T13:25:29;100899.88;;;11.00;82.97
76201;BME280;64981;52.930;9.266;2023-02-17T13:27:58;100904.53;;;11.06;82.71
76201;BME280;64981;52.930;9.266;2023-02-17T13:30:36;100907.63;;;11.01;82.66
76201;BME280;64981;52.930;9.266;2023-02-17T13:33:05;100899.22;;;11.06;82.49
76201;BME280;64981;52.930;9.266;2023-02-17T13:35:35;100913.44;;;11.05;82.64
76201;BME280;64981;52.930;9.266;2023-02-17T13:38:02;100898.34;;;10.89;83.01
76201;BME280;64981;52.930;9.266;2023-02-17T13:40:35;100904.22;;;10.75;83.30
76201;BME280;64981;52.930;9.266;2023-02-17T13:43:18;100912.84;;;10.77;83.25
76201;BME280;64981;52.930;9.266;2023-02-17T13:46:01;100918.00;;;10.95;82.70
76201;BME280;64981;52.930;9.266;2023-02-17T13:48:30;100913.69;;;10.85;82.90
76201;BME280;64981;52.930;9.266;2023-02-17T13:50:59;100915.06;;;10.98;82.20
76201;BME280;64981;52.930;9.266;2023-02-17T13:53:43;100926.91;;;10.85;82.64
76201;BME280;64981;52.930;9.266;2023-02-17T13:56:28;100920.13;;;10.83;82.56
76201;BME280;64981;52.930;9.266;2023-02-17T14:01:44;100922.19;;;11.05;81.58
76201;BME280;64981;52.930;9.266;2023-02-17T14:04:22;100901.22;;;11.12;81.15
76201;BME280;64981;52.930;9.266;2023-02-17T14:06:48;100919.53;;;11.05;81.01
76201;BME280;64981;52.930;9.266;2023-02-17T14:09:28;100907.50;;;11.11;80.84
76201;BME280;64981;52.930;9.266;2023-02-17T14:11:58;100888.53;;;11.15;80.68
76201;BME280;64981;52.930;9.266;2023-02-17T14:14:32;100894.13;;;11.12;80.72